sensor_id;sensor_type;location;lat;lon;timestamp;pressure;altitude;pressure_sealevel;temperature;humidity
36380;BME280;22411;53.016;18.632;2022-08-01T00:00:35;100437.69;;;13.80;100.00
36380;BME280;22411;53.016;18.632;2022-08-01T00:03:07;100432.31;;;13.72;100.00
36380;BME280;22411;53.016;18.632;2022-08-01T00:05:33;100437.75;;;13.69;100.00
36380;BME280;22411;53.016;18.632;2022-08-01T00:08:00;100426.88;;;13.64;100.00
36380;BME280;22411;53.016;18.632;2022-08-01T00:10:26;100433.41;;;13.58;100.00
36380;BME280;22411;53.016;18.632;2022-08-01T00:12:52;100431.09;;;13.55;100.00
36380;BME280;22411;53.016;18.632;2022-08-01T00:15:18;100431.47;;;13.51;100.00
36380;BME280;22411;53.016;18.632;2022-08-01T00:17:44;100426.34;;;13.49;100.00
36380;BME280;22411;53.016;18.632;2022-08-01T00:20:12;100426.63;;;13.46;100.00
36380;BME280;22411;53.016;18.632;2022-08-01T00:22:38;100425.81;;;13.46;100.00
36380;BME280;22411;53.016;18.632;2022-08-01T00:25:05;100429.22;;;13.46;100.00
36380;BME280;22411;53.016;18.632;2022-08-01T00:27:31;100431.13;;;13.44;100.00
36380;BME280;22411;53.016;18.632;2022-08-01T00:29:57;100430.56;;;13.41;100.00
36380;BME280;22411;53.016;18.632;2022-08-01T00:32:23;100431.25;;;13.43;100.00
36380;BME280;22411;53.016;18.632;2022-08-01T00:34:49;100428.63;;;13.43;100.00
36380;BME280;22411;53.016;18.632;2022-08-01T00:37:15;100427.81;;;13.42;100.00
36380;BME280;22411;53.016;18.632;2022-08-01T00:39:42;100427.00;;;13.42;100.00
36380;BME280;22411;53.016;18.632;2022-08-01T00:42:12;100426.03;;;13.43;100.00
36380;BME280;22411;53.016;18.632;2022-08-01T00:44:39;100428.50;;;13.44;100.00
36380;BME280;22411;53.016;18.632;2022-08-01T00:47:06;100429.59;;;13.42;100.00
36380;BME280;22411;53.016;18.632;2022-08-01T00:49:32;100428.28;;;13.47;100.00
36380;BME280;22411;53.016;18.632;2022-08-01T00:51:58;100430.63;;;13.50;100.00
36380;BME280;22411;53.016;18.632;2022-08-01T00:54:26;100425.28;;;13.52;100.00
36380;BME280;22411;53.016;18.632;2022-08-01T00:56:53;100423.28;;;13.55;100.00
36380;BME280;22411;53.016;18.632;2022-08-01T00:59:21;100422.06;;;13.59;100.00
36380;BME280;22411;53.016;18.632;2022-08-01T01:01:48;100423.47;;;13.64;100.00
36380;BME280;22411;53.016;18.632;2022-08-01T01:04:14;100427.16;;;13.61;100.00
36380;BME280;22411;53.016;18.632;2022-08-01T01:06:57;100426.34;;;13.60;100.00
36380;BME280;22411;53.016;18.632;2022-08-01T01:09:46;100428.81;;;13.62;100.00
36380;BME280;22411;53.016;18.632;2022-08-01T01:18:03;100421.22;;;13.59;100.00
36380;BME280;22411;53.016;18.632;2022-08-01T01:20:45;100420.41;;;13.58;100.00
36380;BME280;22411;53.016;18.632;2022-08-01T01:23:36;100414.75;;;13.53;100.00
36380;BME280;22411;53.016;18.632;2022-08-01T01:26:23;100414.06;;;13.51;100.00
36380;BME280;22411;53.016;18.632;2022-08-01T01:29:13;100413.25;;;13.51;100.00
36380;BME280;22411;53.016;18.632;2022-08-01T01:34:49;100417.63;;;13.50;100.00
36380;BME280;22411;53.016;18.632;2022-08-01T01:37:19;100411.47;;;13.51;100.00
36380;BME280;22411;53.016;18.632;2022-08-01T01:39:48;100416.91;;;13.48;100.00
36380;BME280;22411;53.016;18.632;2022-08-01T01:42:17;100412.50;;;13.49;100.00
36380;BME280;22411;53.016;18.632;2022-08-01T01:44:45;100410.88;;;13.48;100.00
36380;BME280;22411;53.016;18.632;2022-08-01T01:47:16;100414.28;;;13.48;100.00
36380;BME280;22411;53.016;18.632;2022-08-01T01:49:44;100414.44;;;13.47;100.00
36380;BME280;22411;53.016;18.632;2022-08-01T01:52:12;100421.16;;;13.49;100.00
36380;BME280;22411;53.016;18.632;2022-08-01T01:54:46;100417.84;;;13.47;100.00
36380;BME280;22411;53.016;18.632;2022-08-01T01:57:14;100407.59;;;13.46;100.00
36380;BME280;22411;53.016;18.632;2022-08-01T01:59:41;100415.38;;;13.46;100.00
36380;BME280;22411;53.016;18.632;2022-08-01T02:02:08;100417.53;;;13.41;100.00
36380;BME280;22411;53.016;18.632;2022-08-01T02:04:36;100418.97;;;13.33;100.00
36380;BME280;22411;53.016;18.632;2022-08-01T02:07:04;100414.16;;;13.29;100.00
36380;BME280;22411;53.016;18.632;2022-08-01T02:09:31;100414.41;;;13.26;100.00
36380;BME280;22411;53.016;18.632;2022-08-01T02:11:59;100415.00;;;13.18;100.00
36380;BME280;22411;53.016;18.632;2022-08-01T02:14:28;100412.75;;;13.14;100.00
36380;BME280;22411;53.016;18.632;2022-08-01T02:16:57;100411.09;;;13.13;100.00
36380;BME280;22411;53.016;18.632;2022-08-01T02:19:23;100413.69;;;13.13;100.00
36380;BME280;22411;53.016;18.632;2022-08-01T02:21:57;100412.63;;;13.15;100.00
36380;BME280;22411;53.016;18.632;2022-08-01T02:27:01;100407.19;;;13.18;100.00
36380;BME280;22411;53.016;18.632;2022-08-01T02:29:58;100395.00;;;13.19;100.00
36380;BME280;22411;53.016;18.632;2022-08-01T02:32:36;100399.25;;;13.20;100.00
36380;BME280;22411;53.016;18.632;2022-08-01T02:35:05;100400.06;;;13.20;100.00
36380;BME280;22411;53.016;18.632;2022-08-01T02:37:34;100404.34;;;13.21;100.00
36380;BME280;22411;53.016;18.632;2022-08-01T02:40:02;100408.84;;;13.19;100.00
36380;BME280;22411;53.016;18.632;2022-08-01T02:42:29;100413.22;;;13.19;100.00
36380;BME280;22411;53.016;18.632;2022-08-01T02:44:56;100401.84;;;13.20;100.00
36380;BME280;22411;53.016;18.632;2022-08-01T02:47:23;100411.44;;;13.19;100.00
36380;BME280;22411;53.016;18.632;2022-08-01T02:49:52;100409.91;;;13.17;100.00
36380;BME280;22411;53.016;18.632;2022-08-01T02:52:20;100411.69;;;13.16;100.00
36380;BME280;22411;53.016;18.632;2022-08-01T02:54:48;100413.47;;;13.16;100.00
36380;BME280;22411;53.016;18.632;2022-08-01T02:57:16;100421.31;;;13.04;100.00
36380;BME280;22411;53.016;18.632;2022-08-01T02:59:43;100418.09;;;13.01;100.00
36380;BME280;22411;53.016;18.632;2022-08-01T03:02:10;100412.34;;;12.97;100.00
36380;BME280;22411;53.016;18.632;2022-08-01T03:04:38;100415.50;;;13.01;100.00
36380;BME280;22411;53.016;18.632;2022-08-01T03:07:07;100416.22;;;13.03;100.00
36380;BME280;22411;53.016;18.632;2022-08-01T03:09:39;100416.91;;;13.05;100.00
36380;BME280;22411;53.016;18.632;2022-08-01T03:12:11;100422.13;;;13.05;100.00
36380;BME280;22411;53.016;18.632;2022-08-01T03:14:40;100418.44;;;13.07;100.00
36380;BME280;22411;53.016;18.632;2022-08-01T03:17:08;100411.47;;;13.08;100.00
36380;BME280;22411;53.016;18.632;2022-08-01T03:19:35;100411.34;;;13.09;100.00
36380;BME280;22411;53.016;18.632;2022-08-01T03:22:06;100412.66;;;13.04;100.00
36380;BME280;22411;53.016;18.632;2022-08-01T03:24:34;100411.03;;;13.03;100.00
36380;BME280;22411;53.016;18.632;2022-08-01T03:27:02;100409.25;;;13.03;100.00
36380;BME280;22411;53.016;18.632;2022-08-01T03:29:29;100405.81;;;13.03;100.00
36380;BME280;22411;53.016;18.632;2022-08-01T03:31:58;100406.38;;;13.06;100.00
36380;BME280;22411;53.016;18.632;2022-08-01T03:34:25;100407.78;;;13.11;100.00
36380;BME280;22411;53.016;18.632;2022-08-01T03:37:16;100404.69;;;13.17;100.00
36380;BME280;22411;53.016;18.632;2022-08-01T03:39:47;100403.84;;;13.27;100.00
36380;BME280;22411;53.016;18.632;2022-08-01T03:42:18;100409.28;;;13.36;100.00
36380;BME280;22411;53.016;18.632;2022-08-01T03:44:53;100409.97;;;13.38;100.00
36380;BME280;22411;53.016;18.632;2022-08-01T03:47:23;100414.22;;;13.39;100.00
36380;BME280;22411;53.016;18.632;2022-08-01T03:49:52;100409.59;;;13.42;100.00
36380;BME280;22411;53.016;18.632;2022-08-01T03:52:19;100418.53;;;13.49;100.00
36380;BME280;22411;53.016;18.632;2022-08-01T03:54:47;100410.25;;;13.55;100.00
36380;BME280;22411;53.016;18.632;2022-08-01T03:57:15;100415.78;;;13.62;100.00
36380;BME280;22411;53.016;18.632;2022-08-01T03:59:41;100419.91;;;13.65;100.00
36380;BME280;22411;53.016;18.632;2022-08-01T04:02:08;100414.59;;;13.66;100.00
36380;BME280;22411;53.016;18.632;2022-08-01T04:04:34;100416.78;;;13.71;100.00
36380;BME280;22411;53.016;18.632;2022-08-01T04:07:02;100425.19;;;13.74;100.00
36380;BME280;22411;53.016;18.632;2022-08-01T04:09:33;100427.41;;;13.79;100.00
36380;BME280;22411;53.016;18.632;2022-08-01T04:12:00;100417.19;;;13.87;100.00
36380;BME280;22411;53.016;18.632;2022-08-01T04:14:27;100423.53;;;13.94;100.00
36380;BME280;22411;53.016;18.632;2022-08-01T04:16:54;100424.53;;;14.03;100.00
36380;BME280;22411;53.016;18.632;2022-08-01T04:19:20;100422.78;;;14.13;100.00
36380;BME280;22411;53.016;18.632;2022-08-01T04:21:47;100423.22;;;14.18;100.00
36380;BME280;22411;53.016;18.632;2022-08-01T04:24:16;100423.56;;;14.25;100.00
36380;BME280;22411;53.016;18.632;2022-08-01T04:26:45;100426.44;;;14.31;100.00
36380;BME280;22411;53.016;18.632;2022-08-01T04:29:15;100417.03;;;14.40;100.00
36380;BME280;22411;53.016;18.632;2022-08-01T04:31:43;100416.38;;;14.48;100.00
36380;BME280;22411;53.016;18.632;2022-08-01T04:34:12;100431.94;;;14.59;100.00
36380;BME280;22411;53.016;18.632;2022-08-01T04:36:40;100417.53;;;14.64;100.00
36380;BME280;22411;53.016;18.632;2022-08-01T04:39:08;100422.34;;;14.69;100.00
36380;BME280;22411;53.016;18.632;2022-08-01T04:41:36;100422.66;;;14.76;100.00
36380;BME280;22411;53.016;18.632;2022-08-01T04:44:03;100416.06;;;14.81;100.00
36380;BME280;22411;53.016;18.632;2022-08-01T04:46:29;100422.13;;;14.91;100.00
36380;BME280;22411;53.016;18.632;2022-08-01T04:48:57;100426.25;;;14.94;100.00
36380;BME280;22411;53.016;18.632;2022-08-01T04:51:24;100424.91;;;15.00;100.00
36380;BME280;22411;53.016;18.632;2022-08-01T04:53:50;100426.28;;;15.04;100.00
36380;BME280;22411;53.016;18.632;2022-08-01T04:56:18;100429.03;;;15.12;100.00
36380;BME280;22411;53.016;18.632;2022-08-01T04:58:44;100436.44;;;15.16;100.00
36380;BME280;22411;53.016;18.632;2022-08-01T05:01:10;100436.31;;;15.28;100.00
36380;BME280;22411;53.016;18.632;2022-08-01T05:03:37;100435.91;;;15.42;100.00
36380;BME280;22411;53.016;18.632;2022-08-01T05:06:03;100437.31;;;15.56;100.00
36380;BME280;22411;53.016;18.632;2022-08-01T05:08:29;100445.56;;;15.71;100.00
36380;BME280;22411;53.016;18.632;2022-08-01T05:10:55;100449.69;;;15.83;100.00
36380;BME280;22411;53.016;18.632;2022-08-01T05:13:20;100450.59;;;16.01;100.00
36380;BME280;22411;53.016;18.632;2022-08-01T05:15:46;100447.69;;;16.14;100.00
36380;BME280;22411;53.016;18.632;2022-08-01T05:18:12;100442.94;;;16.27;100.00
36380;BME280;22411;53.016;18.632;2022-08-01T05:20:38;100447.72;;;16.41;100.00
36380;BME280;22411;53.016;18.632;2022-08-01T05:23:04;100444.38;;;16.49;100.00
36380;BME280;22411;53.016;18.632;2022-08-01T05:25:30;100445.31;;;16.58;100.00
36380;BME280;22411;53.016;18.632;2022-08-01T05:27:56;100453.41;;;16.64;100.00
36380;BME280;22411;53.016;18.632;2022-08-01T05:30:22;100453.53;;;16.72;100.00
36380;BME280;22411;53.016;18.632;2022-08-01T05:32:48;100449.22;;;16.81;100.00
36380;BME280;22411;53.016;18.632;2022-08-01T05:35:13;100452.09;;;16.88;100.00
36380;BME280;22411;53.016;18.632;2022-08-01T05:37:39;100457.13;;;16.99;100.00
36380;BME280;22411;53.016;18.632;2022-08-01T05:40:06;100454.28;;;17.10;100.00
36380;BME280;22411;53.016;18.632;2022-08-01T05:42:32;100456.69;;;17.21;100.00
36380;BME280;22411;53.016;18.632;2022-08-01T05:44:59;100453.16;;;17.31;100.00
36380;BME280;22411;53.016;18.632;2022-08-01T05:47:25;100454.88;;;17.40;100.00
36380;BME280;22411;53.016;18.632;2022-08-01T05:49:50;100449.44;;;17.51;100.00
36380;BME280;22411;53.016;18.632;2022-08-01T05:52:16;100457.19;;;17.61;100.00
36380;BME280;22411;53.016;18.632;2022-08-01T05:54:42;100448.25;;;17.71;100.00
36380;BME280;22411;53.016;18.632;2022-08-01T05:57:08;100451.19;;;17.86;100.00
36380;BME280;22411;53.016;18.632;2022-08-01T05:59:34;100447.34;;;17.98;100.00
36380;BME280;22411;53.016;18.632;2022-08-01T06:02:00;100452.53;;;18.16;100.00
36380;BME280;22411;53.016;18.632;2022-08-01T06:04:26;100443.47;;;18.37;100.00
36380;BME280;22411;53.016;18.632;2022-08-01T06:06:52;100448.50;;;18.56;100.00
36380;BME280;22411;53.016;18.632;2022-08-01T06:09:18;100447.75;;;18.72;100.00
36380;BME280;22411;53.016;18.632;2022-08-01T06:11:44;100443.03;;;18.84;100.00
36380;BME280;22411;53.016;18.632;2022-08-01T06:14:10;100442.56;;;18.96;100.00
36380;BME280;22411;53.016;18.632;2022-08-01T06:16:36;100453.91;;;19.05;100.00
36380;BME280;22411;53.016;18.632;2022-08-01T06:19:02;100456.53;;;19.13;100.00
36380;BME280;22411;53.016;18.632;2022-08-01T06:21:29;100449.69;;;19.20;100.00
36380;BME280;22411;53.016;18.632;2022-08-01T06:23:54;100452.97;;;19.22;100.00
36380;BME280;22411;53.016;18.632;2022-08-01T06:26:20;100458.72;;;19.26;100.00
36380;BME280;22411;53.016;18.632;2022-08-01T06:28:47;100446.06;;;19.29;100.00
36380;BME280;22411;53.016;18.632;2022-08-01T06:31:13;100451.50;;;19.36;100.00
36380;BME280;22411;53.016;18.632;2022-08-01T06:33:40;100453.63;;;19.49;100.00
36380;BME280;22411;53.016;18.632;2022-08-01T06:36:06;100451.84;;;19.57;100.00
36380;BME280;22411;53.016;18.632;2022-08-01T06:38:32;100456.78;;;19.69;100.00
36380;BME280;22411;53.016;18.632;2022-08-01T06:40:58;100454.81;;;19.71;100.00
36380;BME280;22411;53.016;18.632;2022-08-01T06:43:24;100450.69;;;19.76;100.00
36380;BME280;22411;53.016;18.632;2022-08-01T06:45:50;100456.13;;;19.83;100.00
36380;BME280;22411;53.016;18.632;2022-08-01T06:48:16;100459.41;;;19.85;100.00
36380;BME280;22411;53.016;18.632;2022-08-01T06:50:43;100459.25;;;19.78;100.00
36380;BME280;22411;53.016;18.632;2022-08-01T06:53:09;100461.56;;;19.73;100.00
36380;BME280;22411;53.016;18.632;2022-08-01T06:55:34;100460.75;;;19.73;100.00
36380;BME280;22411;53.016;18.632;2022-08-01T06:58:00;100456.94;;;19.75;100.00
36380;BME280;22411;53.016;18.632;2022-08-01T07:00:26;100463.34;;;19.81;100.00
36380;BME280;22411;53.016;18.632;2022-08-01T07:02:55;100463.34;;;19.81;100.00
36380;BME280;22411;53.016;18.632;2022-08-01T07:05:22;100453.34;;;19.84;100.00
36380;BME280;22411;53.016;18.632;2022-08-01T07:07:48;100458.41;;;19.94;100.00
36380;BME280;22411;53.016;18.632;2022-08-01T07:10:14;100455.13;;;19.92;100.00
36380;BME280;22411;53.016;18.632;2022-08-01T07:12:41;100455.94;;;20.01;100.00
36380;BME280;22411;53.016;18.632;2022-08-01T07:15:09;100455.25;;;20.15;100.00
36380;BME280;22411;53.016;18.632;2022-08-01T07:17:39;100453.03;;;20.35;100.00
36380;BME280;22411;53.016;18.632;2022-08-01T07:20:07;100448.75;;;20.50;100.00
36380;BME280;22411;53.016;18.632;2022-08-01T07:22:33;100450.50;;;20.66;100.00
36380;BME280;22411;53.016;18.632;2022-08-01T07:24:59;100451.09;;;20.76;100.00
36380;BME280;22411;53.016;18.632;2022-08-01T07:27:25;100449.03;;;20.95;100.00
36380;BME280;22411;53.016;18.632;2022-08-01T07:29:51;100454.69;;;21.14;100.00
36380;BME280;22411;53.016;18.632;2022-08-01T07:32:17;100455.34;;;21.39;100.00
36380;BME280;22411;53.016;18.632;2022-08-01T07:34:43;100454.53;;;21.39;100.00
36380;BME280;22411;53.016;18.632;2022-08-01T07:37:09;100456.59;;;21.52;100.00
36380;BME280;22411;53.016;18.632;2022-08-01T07:39:35;100456.47;;;21.68;100.00
36380;BME280;22411;53.016;18.632;2022-08-01T07:42:02;100458.84;;;21.92;100.00
36380;BME280;22411;53.016;18.632;2022-08-01T07:44:28;100458.38;;;22.12;100.00
36380;BME280;22411;53.016;18.632;2022-08-01T07:46:54;100456.66;;;22.34;100.00
36380;BME280;22411;53.016;18.632;2022-08-01T07:49:20;100452.44;;;22.54;100.00
36380;BME280;22411;53.016;18.632;2022-08-01T07:51:47;100456.25;;;22.66;100.00
36380;BME280;22411;53.016;18.632;2022-08-01T07:54:13;100452.97;;;22.94;100.00
36380;BME280;22411;53.016;18.632;2022-08-01T07:56:40;100451.50;;;23.13;100.00
36380;BME280;22411;53.016;18.632;2022-08-01T07:59:06;100449.88;;;23.33;100.00
36380;BME280;22411;53.016;18.632;2022-08-01T08:01:32;100457.44;;;23.36;100.00
36380;BME280;22411;53.016;18.632;2022-08-01T08:03:58;100458.69;;;23.19;100.00
36380;BME280;22411;53.016;18.632;2022-08-01T08:06:24;100460.09;;;23.15;100.00
36380;BME280;22411;53.016;18.632;2022-08-01T08:08:50;100462.34;;;23.18;100.00
36380;BME280;22411;53.016;18.632;2022-08-01T08:11:19;100467.69;;;23.25;100.00
36380;BME280;22411;53.016;18.632;2022-08-01T08:13:45;100466.75;;;23.32;100.00
36380;BME280;22411;53.016;18.632;2022-08-01T08:16:11;100464.31;;;23.31;98.55
36380;BME280;22411;53.016;18.632;2022-08-01T08:18:38;100469.50;;;23.45;96.67
36380;BME280;22411;53.016;18.632;2022-08-01T08:21:04;100467.63;;;23.61;95.74
36380;BME280;22411;53.016;18.632;2022-08-01T08:23:30;100471.88;;;23.83;92.72
36380;BME280;22411;53.016;18.632;2022-08-01T08:26:14;100465.25;;;24.22;87.99
36380;BME280;22411;53.016;18.632;2022-08-01T08:28:40;100463.75;;;24.41;87.44
36380;BME280;22411;53.016;18.632;2022-08-01T08:31:07;100463.34;;;24.44;85.60
36380;BME280;22411;53.016;18.632;2022-08-01T08:33:34;100463.00;;;24.54;87.73
36380;BME280;22411;53.016;18.632;2022-08-01T08:36:00;100456.94;;;24.66;85.92
36380;BME280;22411;53.016;18.632;2022-08-01T08:38:26;100460.84;;;24.77;86.30
36380;BME280;22411;53.016;18.632;2022-08-01T08:40:53;100460.63;;;24.72;84.67
36380;BME280;22411;53.016;18.632;2022-08-01T08:43:19;100452.88;;;24.70;86.50
36380;BME280;22411;53.016;18.632;2022-08-01T08:45:46;100455.09;;;24.67;86.57
36380;BME280;22411;53.016;18.632;2022-08-01T08:48:13;100461.16;;;24.54;87.72
36380;BME280;22411;53.016;18.632;2022-08-01T08:50:41;100466.25;;;24.56;87.67
36380;BME280;22411;53.016;18.632;2022-08-01T08:53:09;100457.91;;;24.52;88.22
36380;BME280;22411;53.016;18.632;2022-08-01T08:55:36;100468.28;;;24.47;89.92
36380;BME280;22411;53.016;18.632;2022-08-01T08:58:04;100475.16;;;24.41;89.00
36380;BME280;22411;53.016;18.632;2022-08-01T09:00:32;100469.38;;;24.31;90.08
36380;BME280;22411;53.016;18.632;2022-08-01T09:03:00;100470.34;;;24.23;91.20
36380;BME280;22411;53.016;18.632;2022-08-01T09:05:26;100471.94;;;24.18;90.28
36380;BME280;22411;53.016;18.632;2022-08-01T09:07:53;100473.34;;;24.14;88.91
36380;BME280;22411;53.016;18.632;2022-08-01T09:10:19;100470.50;;;24.15;89.75
36380;BME280;22411;53.016;18.632;2022-08-01T09:13:08;100471.66;;;24.06;92.30
36380;BME280;22411;53.016;18.632;2022-08-01T09:15:43;100475.22;;;23.92;91.40
36380;BME280;22411;53.016;18.632;2022-08-01T09:21:08;100481.38;;;23.99;91.83
36380;BME280;22411;53.016;18.632;2022-08-01T09:23:40;100482.38;;;23.98;88.88
36380;BME280;22411;53.016;18.632;2022-08-01T09:26:09;100488.31;;;24.00;87.05
36380;BME280;22411;53.016;18.632;2022-08-01T09:28:36;100483.03;;;24.00;87.57
36380;BME280;22411;53.016;18.632;2022-08-01T09:31:11;100482.88;;;24.08;87.75
36380;BME280;22411;53.016;18.632;2022-08-01T09:33:56;100489.91;;;24.22;88.28
36380;BME280;22411;53.016;18.632;2022-08-01T09:36:25;100491.75;;;24.29;86.78
36380;BME280;22411;53.016;18.632;2022-08-01T09:38:53;100484.25;;;24.32;83.94
36380;BME280;22411;53.016;18.632;2022-08-01T09:41:30;100494.75;;;24.47;84.03
36380;BME280;22411;53.016;18.632;2022-08-01T09:43:57;100497.59;;;24.45;82.14
36380;BME280;22411;53.016;18.632;2022-08-01T09:46:24;100485.84;;;24.26;83.68
36380;BME280;22411;53.016;18.632;2022-08-01T09:48:59;100493.50;;;24.15;85.10
36380;BME280;22411;53.016;18.632;2022-08-01T09:51:43;100482.91;;;24.15;85.02
36380;BME280;22411;53.016;18.632;2022-08-01T09:54:09;100487.69;;;24.26;85.91
36380;BME280;22411;53.016;18.632;2022-08-01T09:56:41;100489.22;;;24.42;86.90
36380;BME280;22411;53.016;18.632;2022-08-01T09:59:08;100495.75;;;24.46;85.09
36380;BME280;22411;53.016;18.632;2022-08-01T10:01:48;100491.50;;;24.51;85.12
36380;BME280;22411;53.016;18.632;2022-08-01T10:04:18;100497.41;;;24.47;85.58
36380;BME280;22411;53.016;18.632;2022-08-01T10:06:49;100495.03;;;24.59;84.76
36380;BME280;22411;53.016;18.632;2022-08-01T10:09:29;100486.28;;;24.65;84.47
36380;BME280;22411;53.016;18.632;2022-08-01T10:11:56;100491.22;;;24.81;85.50
36380;BME280;22411;53.016;18.632;2022-08-01T10:14:27;100491.31;;;24.94;83.87
36380;BME280;22411;53.016;18.632;2022-08-01T10:16:56;100484.00;;;25.10;82.93
36380;BME280;22411;53.016;18.632;2022-08-01T10:19:26;100481.19;;;25.18;81.48
36380;BME280;22411;53.016;18.632;2022-08-01T10:21:53;100479.13;;;25.20;80.92
36380;BME280;22411;53.016;18.632;2022-08-01T10:24:21;100482.00;;;25.25;75.89
36380;BME280;22411;53.016;18.632;2022-08-01T10:26:48;100481.41;;;25.23;77.12
36380;BME280;22411;53.016;18.632;2022-08-01T10:29:18;100477.13;;;25.28;75.22
36380;BME280;22411;53.016;18.632;2022-08-01T10:31:49;100479.81;;;25.42;76.32
36380;BME280;22411;53.016;18.632;2022-08-01T10:34:15;100468.38;;;25.54;78.63
36380;BME280;22411;53.016;18.632;2022-08-01T10:36:45;100463.28;;;25.60;80.75
36380;BME280;22411;53.016;18.632;2022-08-01T10:39:12;100473.69;;;25.61;78.78
36380;BME280;22411;53.016;18.632;2022-08-01T10:41:39;100462.06;;;25.69;78.75
36380;BME280;22411;53.016;18.632;2022-08-01T10:44:07;100459.19;;;25.84;80.30
36380;BME280;22411;53.016;18.632;2022-08-01T10:46:46;100464.91;;;26.07;78.66
36380;BME280;22411;53.016;18.632;2022-08-01T10:49:17;100469.53;;;26.38;75.72
36380;BME280;22411;53.016;18.632;2022-08-01T10:51:46;100460.97;;;26.43;71.33
36380;BME280;22411;53.016;18.632;2022-08-01T10:54:12;100451.25;;;26.68;71.04
36380;BME280;22411;53.016;18.632;2022-08-01T10:56:47;100457.06;;;26.90;68.97
36380;BME280;22411;53.016;18.632;2022-08-01T10:59:25;100455.50;;;27.14;66.73
36380;BME280;22411;53.016;18.632;2022-08-01T11:02:03;100453.72;;;27.01;65.59
36380;BME280;22411;53.016;18.632;2022-08-01T11:07:08;100456.78;;;27.12;68.42
36380;BME280;22411;53.016;18.632;2022-08-01T11:09:45;100458.50;;;27.24;68.95
36380;BME280;22411;53.016;18.632;2022-08-01T11:12:15;100452.63;;;27.47;68.00
36380;BME280;22411;53.016;18.632;2022-08-01T11:17:34;100456.34;;;27.71;66.04
36380;BME280;22411;53.016;18.632;2022-08-01T11:20:09;100458.78;;;28.16;64.17
36380;BME280;22411;53.016;18.632;2022-08-01T11:23:14;100462.03;;;28.36;59.71
36380;BME280;22411;53.016;18.632;2022-08-01T11:30:45;100457.22;;;29.65;58.73
36380;BME280;22411;53.016;18.632;2022-08-01T11:33:13;100457.91;;;29.73;56.08
36380;BME280;22411;53.016;18.632;2022-08-01T11:38:44;100454.94;;;30.85;53.03
36380;BME280;22411;53.016;18.632;2022-08-01T11:41:32;100451.88;;;31.10;50.33
36380;BME280;22411;53.016;18.632;2022-08-01T11:44:08;100452.31;;;31.18;48.82
36380;BME280;22411;53.016;18.632;2022-08-01T11:46:57;100451.59;;;30.78;49.46
36380;BME280;22411;53.016;18.632;2022-08-01T11:49:33;100449.63;;;30.73;51.82
36380;BME280;22411;53.016;18.632;2022-08-01T11:52:01;100446.78;;;30.91;51.42
36380;BME280;22411;53.016;18.632;2022-08-01T11:54:29;100441.50;;;30.96;50.01
36380;BME280;22411;53.016;18.632;2022-08-01T11:56:57;100438.84;;;31.13;50.19
36380;BME280;22411;53.016;18.632;2022-08-01T11:59:26;100441.91;;;31.05;50.12
36380;BME280;22411;53.016;18.632;2022-08-01T12:01:52;100435.66;;;30.99;50.43
36380;BME280;22411;53.016;18.632;2022-08-01T12:04:19;100444.75;;;31.27;50.14
36380;BME280;22411;53.016;18.632;2022-08-01T12:06:46;100443.84;;;31.38;50.89
36380;BME280;22411;53.016;18.632;2022-08-01T12:09:21;100449.44;;;31.37;50.54
36380;BME280;22411;53.016;18.632;2022-08-01T12:11:48;100438.75;;;31.08;50.43
36380;BME280;22411;53.016;18.632;2022-08-01T12:14:21;100447.25;;;31.05;49.31
36380;BME280;22411;53.016;18.632;2022-08-01T12:16:52;100442.00;;;31.10;48.35
36380;BME280;22411;53.016;18.632;2022-08-01T12:19:21;100439.59;;;31.42;50.61
36380;BME280;22411;53.016;18.632;2022-08-01T12:22:06;100449.88;;;32.01;50.86
36380;BME280;22411;53.016;18.632;2022-08-01T12:24:34;100449.31;;;32.38;50.33
36380;BME280;22411;53.016;18.632;2022-08-01T12:27:01;100447.78;;;32.47;47.00
36380;BME280;22411;53.016;18.632;2022-08-01T12:29:34;100444.38;;;32.78;44.77
36380;BME280;22411;53.016;18.632;2022-08-01T12:32:01;100445.97;;;32.79;45.55
36380;BME280;22411;53.016;18.632;2022-08-01T12:34:29;100443.44;;;32.90;44.94
36380;BME280;22411;53.016;18.632;2022-08-01T12:37:00;100439.19;;;32.94;44.67
36380;BME280;22411;53.016;18.632;2022-08-01T12:39:32;100441.91;;;32.99;44.19
36380;BME280;22411;53.016;18.632;2022-08-01T12:41:58;100439.59;;;33.08;44.87
36380;BME280;22411;53.016;18.632;2022-08-01T12:44:27;100448.72;;;32.85;45.01
36380;BME280;22411;53.016;18.632;2022-08-01T12:46:54;100445.44;;;32.77;47.93
36380;BME280;22411;53.016;18.632;2022-08-01T12:49:20;100445.44;;;33.04;44.44
36380;BME280;22411;53.016;18.632;2022-08-01T12:51:49;100445.22;;;33.38;44.64
36380;BME280;22411;53.016;18.632;2022-08-01T12:54:15;100443.63;;;33.42;43.32
36380;BME280;22411;53.016;18.632;2022-08-01T12:56:41;100438.72;;;33.66;43.65
36380;BME280;22411;53.016;18.632;2022-08-01T12:59:21;100448.91;;;34.06;42.56
36380;BME280;22411;53.016;18.632;2022-08-01T13:01:48;100437.06;;;34.02;40.71
36380;BME280;22411;53.016;18.632;2022-08-01T13:04:14;100442.94;;;33.99;42.85
36380;BME280;22411;53.016;18.632;2022-08-01T13:06:41;100437.09;;;34.13;42.53
36380;BME280;22411;53.016;18.632;2022-08-01T13:09:10;100435.03;;;34.40;41.82